Aviation Digital Data Service (ADDS)

Output produced by METARs form (2114 UTC 02 September 2014)
found at http://aviationweather.gov/adds/metars/
 
KEWR 022056Z 0221/0324 25011G17KT P6SM SCT050 BKN250 
     FM030100 26012KT P6SM VCSH BKN050 
     TEMPO 0302/0303 2SM -TSRA BKN040CB 
     FM030500 29009KT P6SM SCT050 SCT150 
     FM030900 32010KT P6SM SCT250 
     FM031800 29008KT P6SM SKC